sensor_id;sensor_type;location;lat;lon;timestamp;temperature;humidity
27741;DHT22;15134;48.768;9.184;2022-10-30T00:00:38;16.90;99.90
27741;DHT22;15134;48.768;9.184;2022-10-30T00:03:04;16.90;99.90
27741;DHT22;15134;48.768;9.184;2022-10-30T00:05:30;16.90;99.90
27741;DHT22;15134;48.768;9.184;2022-10-30T00:07:56;16.90;99.90
27741;DHT22;15134;48.768;9.184;2022-10-30T00:10:23;16.90;99.90
27741;DHT22;15134;48.768;9.184;2022-10-30T00:12:49;17.00;99.90
27741;DHT22;15134;48.768;9.184;2022-10-30T00:15:15;17.00;99.90
27741;DHT22;15134;48.768;9.184;2022-10-30T00:17:41;16.90;99.90
27741;DHT22;15134;48.768;9.184;2022-10-30T00:20:07;16.90;99.90
27741;DHT22;15134;48.768;9.184;2022-10-30T00:22:34;17.00;99.90
27741;DHT22;15134;48.768;9.184;2022-10-30T00:24:59;16.90;99.90
27741;DHT22;15134;48.768;9.184;2022-10-30T00:27:26;16.90;99.90
27741;DHT22;15134;48.768;9.184;2022-10-30T00:29:53;16.90;99.90
27741;DHT22;15134;48.768;9.184;2022-10-30T00:32:19;17.00;99.90
27741;DHT22;15134;48.768;9.184;2022-10-30T00:34:45;16.90;99.90
27741;DHT22;15134;48.768;9.184;2022-10-30T00:37:10;16.90;99.90
27741;DHT22;15134;48.768;9.184;2022-10-30T00:39:38;16.90;99.90
27741;DHT22;15134;48.768;9.184;2022-10-30T00:42:04;16.90;99.90
27741;DHT22;15134;48.768;9.184;2022-10-30T00:47:37;16.90;99.90
27741;DHT22;15134;48.768;9.184;2022-10-30T00:50:24;16.80;99.90
27741;DHT22;15134;48.768;9.184;2022-10-30T00:53:11;16.80;99.90
27741;DHT22;15134;48.768;9.184;2022-10-30T00:55:42;16.70;99.90
27741;DHT22;15134;48.768;9.184;2022-10-30T00:58:15;16.80;99.90
27741;DHT22;15134;48.768;9.184;2022-10-30T01:00:47;16.70;99.90
27741;DHT22;15134;48.768;9.184;2022-10-30T01:03:14;16.80;99.90
27741;DHT22;15134;48.768;9.184;2022-10-30T01:05:45;16.80;99.90
27741;DHT22;15134;48.768;9.184;2022-10-30T01:08:12;16.70;99.90
27741;DHT22;15134;48.768;9.184;2022-10-30T01:10:38;16.70;99.90
27741;DHT22;15134;48.768;9.184;2022-10-30T01:13:04;16.60;99.90
27741;DHT22;15134;48.768;9.184;2022-10-30T01:15:34;16.60;99.90
27741;DHT22;15134;48.768;9.184;2022-10-30T01:18:41;16.50;99.90
27741;DHT22;15134;48.768;9.184;2022-10-30T01:24:18;16.40;99.90
27741;DHT22;15134;48.768;9.184;2022-10-30T01:38:19;16.50;99.90
27741;DHT22;15134;48.768;9.184;2022-10-30T01:40:49;16.40;99.90
27741;DHT22;15134;48.768;9.184;2022-10-30T01:43:15;16.40;99.90
27741;DHT22;15134;48.768;9.184;2022-10-30T01:48:26;16.40;99.90
27741;DHT22;15134;48.768;9.184;2022-10-30T01:56:31;16.40;99.90
27741;DHT22;15134;48.768;9.184;2022-10-30T01:59:17;16.30;99.90
27741;DHT22;15134;48.768;9.184;2022-10-30T02:01:45;16.30;99.90
27741;DHT22;15134;48.768;9.184;2022-10-30T02:04:15;16.30;99.90
27741;DHT22;15134;48.768;9.184;2022-10-30T02:06:41;16.30;99.90
27741;DHT22;15134;48.768;9.184;2022-10-30T02:09:08;16.30;99.90
27741;DHT22;15134;48.768;9.184;2022-10-30T02:11:37;16.30;99.90
27741;DHT22;15134;48.768;9.184;2022-10-30T02:14:06;16.30;99.90
27741;DHT22;15134;48.768;9.184;2022-10-30T02:16:43;16.30;99.90
27741;DHT22;15134;48.768;9.184;2022-10-30T02:19:13;16.30;99.90
27741;DHT22;15134;48.768;9.184;2022-10-30T02:21:39;16.20;99.90
27741;DHT22;15134;48.768;9.184;2022-10-30T02:24:05;16.20;99.90
27741;DHT22;15134;48.768;9.184;2022-10-30T02:26:31;16.20;99.90
27741;DHT22;15134;48.768;9.184;2022-10-30T02:29:00;16.20;99.90
27741;DHT22;15134;48.768;9.184;2022-10-30T02:31:26;16.20;99.90
27741;DHT22;15134;48.768;9.184;2022-10-30T02:33:52;16.20;99.90
27741;DHT22;15134;48.768;9.184;2022-10-30T02:36:21;16.20;99.90
27741;DHT22;15134;48.768;9.184;2022-10-30T02:38:47;16.20;99.90
27741;DHT22;15134;48.768;9.184;2022-10-30T02:41:13;16.20;99.90
27741;DHT22;15134;48.768;9.184;2022-10-30T02:43:38;16.20;99.90
27741;DHT22;15134;48.768;9.184;2022-10-30T02:46:10;16.20;99.90
27741;DHT22;15134;48.768;9.184;2022-10-30T02:48:36;16.20;99.90
27741;DHT22;15134;48.768;9.184;2022-10-30T02:51:03;16.20;99.90
27741;DHT22;15134;48.768;9.184;2022-10-30T02:53:29;16.20;99.90
27741;DHT22;15134;48.768;9.184;2022-10-30T02:55:55;16.10;99.90
27741;DHT22;15134;48.768;9.184;2022-10-30T02:58:21;16.00;99.90
27741;DHT22;15134;48.768;9.184;2022-10-30T03:00:47;16.00;99.90
27741;DHT22;15134;48.768;9.184;2022-10-30T03:03:13;16.00;99.90
27741;DHT22;15134;48.768;9.184;2022-10-30T03:05:39;16.00;99.90
27741;DHT22;15134;48.768;9.184;2022-10-30T03:08:05;16.00;99.90
27741;DHT22;15134;48.768;9.184;2022-10-30T03:10:31;16.00;99.90
27741;DHT22;15134;48.768;9.184;2022-10-30T03:13:01;16.00;99.90
27741;DHT22;15134;48.768;9.184;2022-10-30T03:15:27;16.00;99.90
27741;DHT22;15134;48.768;9.184;2022-10-30T03:17:52;16.00;99.90
27741;DHT22;15134;48.768;9.184;2022-10-30T03:20:21;16.00;99.90
27741;DHT22;15134;48.768;9.184;2022-10-30T03:22:47;15.90;99.90
27741;DHT22;15134;48.768;9.184;2022-10-30T03:25:13;16.00;99.90
27741;DHT22;15134;48.768;9.184;2022-10-30T03:27:39;16.00;99.90
27741;DHT22;15134;48.768;9.184;2022-10-30T03:30:14;15.90;99.90
27741;DHT22;15134;48.768;9.184;2022-10-30T03:32:40;15.90;99.90
27741;DHT22;15134;48.768;9.184;2022-10-30T03:35:06;15.90;99.90
27741;DHT22;15134;48.768;9.184;2022-10-30T03:37:31;15.90;99.90
27741;DHT22;15134;48.768;9.184;2022-10-30T03:39:57;15.80;99.90
27741;DHT22;15134;48.768;9.184;2022-10-30T03:42:23;15.80;99.90
27741;DHT22;15134;48.768;9.184;2022-10-30T03:44:50;15.80;99.90
27741;DHT22;15134;48.768;9.184;2022-10-30T03:47:16;15.70;99.90
27741;DHT22;15134;48.768;9.184;2022-10-30T03:49:43;15.70;99.90
27741;DHT22;15134;48.768;9.184;2022-10-30T03:52:12;15.70;99.90
27741;DHT22;15134;48.768;9.184;2022-10-30T03:54:38;15.70;99.90
27741;DHT22;15134;48.768;9.184;2022-10-30T03:57:04;15.70;99.90
27741;DHT22;15134;48.768;9.184;2022-10-30T03:59:39;15.70;99.90
27741;DHT22;15134;48.768;9.184;2022-10-30T04:02:31;15.60;99.90
27741;DHT22;15134;48.768;9.184;2022-10-30T04:04:57;15.70;99.90
27741;DHT22;15134;48.768;9.184;2022-10-30T04:07:22;15.60;99.90
27741;DHT22;15134;48.768;9.184;2022-10-30T04:09:48;15.60;99.90
27741;DHT22;15134;48.768;9.184;2022-10-30T04:12:14;15.60;99.90
27741;DHT22;15134;48.768;9.184;2022-10-30T04:14:40;15.60;99.90
27741;DHT22;15134;48.768;9.184;2022-10-30T04:17:05;15.60;99.90
27741;DHT22;15134;48.768;9.184;2022-10-30T04:19:33;15.60;99.90
27741;DHT22;15134;48.768;9.184;2022-10-30T04:21:59;15.60;99.90
27741;DHT22;15134;48.768;9.184;2022-10-30T04:24:25;15.60;99.90
27741;DHT22;15134;48.768;9.184;2022-10-30T04:26:54;15.60;99.90
27741;DHT22;15134;48.768;9.184;2022-10-30T04:29:21;15.50;99.90
27741;DHT22;15134;48.768;9.184;2022-10-30T04:31:50;15.50;99.90
27741;DHT22;15134;48.768;9.184;2022-10-30T04:34:16;15.50;99.90
27741;DHT22;15134;48.768;9.184;2022-10-30T04:36:41;15.50;99.90
27741;DHT22;15134;48.768;9.184;2022-10-30T04:39:08;15.50;99.90
27741;DHT22;15134;48.768;9.184;2022-10-30T04:41:34;15.50;99.90
27741;DHT22;15134;48.768;9.184;2022-10-30T04:44:11;15.50;99.90
27741;DHT22;15134;48.768;9.184;2022-10-30T04:46:38;15.50;99.90
27741;DHT22;15134;48.768;9.184;2022-10-30T04:49:08;15.50;99.90
27741;DHT22;15134;48.768;9.184;2022-10-30T04:51:37;15.40;99.90
27741;DHT22;15134;48.768;9.184;2022-10-30T04:54:05;15.40;99.90
27741;DHT22;15134;48.768;9.184;2022-10-30T04:56:32;15.30;99.90
27741;DHT22;15134;48.768;9.184;2022-10-30T04:58:58;15.30;99.90
27741;DHT22;15134;48.768;9.184;2022-10-30T05:01:24;15.20;99.90
27741;DHT22;15134;48.768;9.184;2022-10-30T05:03:52;15.20;99.90
27741;DHT22;15134;48.768;9.184;2022-10-30T05:06:24;15.20;99.90
27741;DHT22;15134;48.768;9.184;2022-10-30T05:08:50;15.20;99.90
27741;DHT22;15134;48.768;9.184;2022-10-30T05:11:46;15.20;99.90
27741;DHT22;15134;48.768;9.184;2022-10-30T05:14:15;15.20;99.90
27741;DHT22;15134;48.768;9.184;2022-10-30T05:16:42;15.10;99.90
27741;DHT22;15134;48.768;9.184;2022-10-30T05:19:08;15.10;99.90
27741;DHT22;15134;48.768;9.184;2022-10-30T05:21:34;15.10;99.90
27741;DHT22;15134;48.768;9.184;2022-10-30T05:24:03;15.10;99.90
27741;DHT22;15134;48.768;9.184;2022-10-30T05:26:40;15.10;99.90
27741;DHT22;15134;48.768;9.184;2022-10-30T05:29:05;15.10;99.90
27741;DHT22;15134;48.768;9.184;2022-10-30T05:31:31;15.10;99.90
27741;DHT22;15134;48.768;9.184;2022-10-30T05:34:15;15.10;99.90
27741;DHT22;15134;48.768;9.184;2022-10-30T05:36:42;15.10;99.90
27741;DHT22;15134;48.768;9.184;2022-10-30T05:39:11;15.10;99.90
27741;DHT22;15134;48.768;9.184;2022-10-30T05:41:41;15.10;99.90
27741;DHT22;15134;48.768;9.184;2022-10-30T05:44:07;15.10;99.90
27741;DHT22;15134;48.768;9.184;2022-10-30T05:46:33;15.00;99.90
27741;DHT22;15134;48.768;9.184;2022-10-30T05:49:17;15.00;99.90
27741;DHT22;15134;48.768;9.184;2022-10-30T05:51:44;15.00;99.90
27741;DHT22;15134;48.768;9.184;2022-10-30T05:54:10;15.00;99.90
27741;DHT22;15134;48.768;9.184;2022-10-30T05:56:41;14.90;99.90
27741;DHT22;15134;48.768;9.184;2022-10-30T05:59:07;14.90;99.90
27741;DHT22;15134;48.768;9.184;2022-10-30T06:01:32;14.90;99.90
27741;DHT22;15134;48.768;9.184;2022-10-30T06:04:02;14.90;99.90
27741;DHT22;15134;48.768;9.184;2022-10-30T06:06:28;15.00;99.90
27741;DHT22;15134;48.768;9.184;2022-10-30T06:08:54;15.00;99.90
27741;DHT22;15134;48.768;9.184;2022-10-30T06:11:38;15.00;99.90
27741;DHT22;15134;48.768;9.184;2022-10-30T06:14:06;14.90;99.90
27741;DHT22;15134;48.768;9.184;2022-10-30T06:16:52;15.00;99.90
27741;DHT22;15134;48.768;9.184;2022-10-30T06:19:44;14.90;99.90
27741;DHT22;15134;48.768;9.184;2022-10-30T06:22:30;14.80;99.90
27741;DHT22;15134;48.768;9.184;2022-10-30T06:25:00;14.80;99.90
27741;DHT22;15134;48.768;9.184;2022-10-30T06:27:48;14.80;99.90
27741;DHT22;15134;48.768;9.184;2022-10-30T06:30:15;14.90;99.90
27741;DHT22;15134;48.768;9.184;2022-10-30T06:32:41;14.90;99.90
27741;DHT22;15134;48.768;9.184;2022-10-30T06:35:07;14.90;99.90
27741;DHT22;15134;48.768;9.184;2022-10-30T06:37:33;15.00;99.90
27741;DHT22;15134;48.768;9.184;2022-10-30T06:40:08;14.90;99.90
27741;DHT22;15134;48.768;9.184;2022-10-30T06:42:54;15.00;99.90
27741;DHT22;15134;48.768;9.184;2022-10-30T06:45:42;15.00;99.90
27741;DHT22;15134;48.768;9.184;2022-10-30T06:48:08;15.10;99.90
27741;DHT22;15134;48.768;9.184;2022-10-30T06:50:39;15.20;99.90
27741;DHT22;15134;48.768;9.184;2022-10-30T06:53:05;15.20;99.90
27741;DHT22;15134;48.768;9.184;2022-10-30T06:55:31;15.30;99.90
27741;DHT22;15134;48.768;9.184;2022-10-30T06:58:07;15.20;99.90
27741;DHT22;15134;48.768;9.184;2022-10-30T07:00:45;15.20;99.90
27741;DHT22;15134;48.768;9.184;2022-10-30T07:03:30;15.30;99.90
27741;DHT22;15134;48.768;9.184;2022-10-30T07:05:56;15.30;99.90
27741;DHT22;15134;48.768;9.184;2022-10-30T07:08:21;15.40;99.90
27741;DHT22;15134;48.768;9.184;2022-10-30T07:10:55;15.40;99.90
27741;DHT22;15134;48.768;9.184;2022-10-30T07:13:44;15.40;99.90
27741;DHT22;15134;48.768;9.184;2022-10-30T07:16:28;15.40;99.90
27741;DHT22;15134;48.768;9.184;2022-10-30T07:18:54;15.50;99.90
27741;DHT22;15134;48.768;9.184;2022-10-30T07:21:20;15.60;99.90
27741;DHT22;15134;48.768;9.184;2022-10-30T07:23:46;15.60;99.90
27741;DHT22;15134;48.768;9.184;2022-10-30T07:26:21;15.60;99.90
27741;DHT22;15134;48.768;9.184;2022-10-30T07:28:47;15.60;99.90
27741;DHT22;15134;48.768;9.184;2022-10-30T07:31:45;15.70;99.90
27741;DHT22;15134;48.768;9.184;2022-10-30T07:34:42;15.70;99.90
27741;DHT22;15134;48.768;9.184;2022-10-30T07:37:29;15.80;99.90
27741;DHT22;15134;48.768;9.184;2022-10-30T07:40:18;15.90;99.90
27741;DHT22;15134;48.768;9.184;2022-10-30T07:43:16;15.90;99.90
27741;DHT22;15134;48.768;9.184;2022-10-30T07:46:04;15.90;99.90
27741;DHT22;15134;48.768;9.184;2022-10-30T07:48:55;16.00;99.90
27741;DHT22;15134;48.768;9.184;2022-10-30T07:51:41;16.10;99.90
27741;DHT22;15134;48.768;9.184;2022-10-30T07:54:07;16.20;99.90
27741;DHT22;15134;48.768;9.184;2022-10-30T07:56:34;16.20;99.90
27741;DHT22;15134;48.768;9.184;2022-10-30T07:59:18;16.20;99.90
27741;DHT22;15134;48.768;9.184;2022-10-30T08:02:02;16.20;99.90
27741;DHT22;15134;48.768;9.184;2022-10-30T08:04:51;16.20;99.90
27741;DHT22;15134;48.768;9.184;2022-10-30T08:07:45;16.20;99.90
27741;DHT22;15134;48.768;9.184;2022-10-30T08:10:11;16.20;99.90
27741;DHT22;15134;48.768;9.184;2022-10-30T08:12:40;16.20;99.90
27741;DHT22;15134;48.768;9.184;2022-10-30T08:15:08;16.20;99.90
27741;DHT22;15134;48.768;9.184;2022-10-30T08:17:44;16.10;99.90
27741;DHT22;15134;48.768;9.184;2022-10-30T08:20:15;16.10;99.90
27741;DHT22;15134;48.768;9.184;2022-10-30T08:22:53;16.10;99.90
27741;DHT22;15134;48.768;9.184;2022-10-30T08:25:29;16.10;99.90
27741;DHT22;15134;48.768;9.184;2022-10-30T08:28:04;16.10;99.90
27741;DHT22;15134;48.768;9.184;2022-10-30T08:30:41;16.10;99.90
27741;DHT22;15134;48.768;9.184;2022-10-30T08:33:11;16.10;99.90
27741;DHT22;15134;48.768;9.184;2022-10-30T08:35:57;16.10;99.90
27741;DHT22;15134;48.768;9.184;2022-10-30T08:38:30;16.10;99.90
27741;DHT22;15134;48.768;9.184;2022-10-30T08:41:16;16.10;99.90
27741;DHT22;15134;48.768;9.184;2022-10-30T08:43:45;16.20;99.90
27741;DHT22;15134;48.768;9.184;2022-10-30T08:46:16;16.40;99.90
27741;DHT22;15134;48.768;9.184;2022-10-30T08:48:42;16.70;99.90
27741;DHT22;15134;48.768;9.184;2022-10-30T08:51:08;17.00;99.90
27741;DHT22;15134;48.768;9.184;2022-10-30T08:53:40;17.30;99.90
27741;DHT22;15134;48.768;9.184;2022-10-30T08:56:10;17.50;99.90
27741;DHT22;15134;48.768;9.184;2022-10-30T08:58:53;17.60;99.90
27741;DHT22;15134;48.768;9.184;2022-10-30T09:01:20;17.70;99.90
27741;DHT22;15134;48.768;9.184;2022-10-30T09:04:18;17.70;99.90
27741;DHT22;15134;48.768;9.184;2022-10-30T09:06:43;17.80;99.90
27741;DHT22;15134;48.768;9.184;2022-10-30T09:09:41;17.90;99.90
27741;DHT22;15134;48.768;9.184;2022-10-30T09:12:07;18.00;99.90
27741;DHT22;15134;48.768;9.184;2022-10-30T09:14:39;18.10;99.90
27741;DHT22;15134;48.768;9.184;2022-10-30T09:17:07;18.20;99.90
27741;DHT22;15134;48.768;9.184;2022-10-30T09:19:41;18.20;99.90
27741;DHT22;15134;48.768;9.184;2022-10-30T09:22:07;18.20;99.90
27741;DHT22;15134;48.768;9.184;2022-10-30T09:24:41;18.20;99.90
27741;DHT22;15134;48.768;9.184;2022-10-30T09:27:38;18.20;99.90
27741;DHT22;15134;48.768;9.184;2022-10-30T09:30:06;18.10;99.90
27741;DHT22;15134;48.768;9.184;2022-10-30T09:32:39;18.10;99.90
27741;DHT22;15134;48.768;9.184;2022-10-30T09:35:09;18.10;99.90
27741;DHT22;15134;48.768;9.184;2022-10-30T09:37:38;18.10;99.90
27741;DHT22;15134;48.768;9.184;2022-10-30T09:40:09;18.20;99.90
27741;DHT22;15134;48.768;9.184;2022-10-30T09:42:42;18.30;99.90
27741;DHT22;15134;48.768;9.184;2022-10-30T09:45:40;18.60;99.90
27741;DHT22;15134;48.768;9.184;2022-10-30T10:00:20;19.60;99.90
27741;DHT22;15134;48.768;9.184;2022-10-30T10:06:18;19.80;99.90
27741;DHT22;15134;48.768;9.184;2022-10-30T10:09:00;19.90;99.90
27741;DHT22;15134;48.768;9.184;2022-10-30T10:12:29;20.10;99.90
27741;DHT22;15134;48.768;9.184;2022-10-30T10:15:04;20.20;99.90
27741;DHT22;15134;48.768;9.184;2022-10-30T10:17:43;20.30;99.90
27741;DHT22;15134;48.768;9.184;2022-10-30T10:20:39;20.30;99.90
27741;DHT22;15134;48.768;9.184;2022-10-30T10:23:25;20.40;99.90
27741;DHT22;15134;48.768;9.184;2022-10-30T10:25:52;20.50;99.90
27741;DHT22;15134;48.768;9.184;2022-10-30T10:28:47;20.60;99.90
27741;DHT22;15134;48.768;9.184;2022-10-30T10:37:56;20.90;99.90
27741;DHT22;15134;48.768;9.184;2022-10-30T10:43:12;21.00;99.90
27741;DHT22;15134;48.768;9.184;2022-10-30T10:51:09;21.30;99.90
27741;DHT22;15134;48.768;9.184;2022-10-30T10:54:00;21.40;99.90
27741;DHT22;15134;48.768;9.184;2022-10-30T10:56:32;21.50;99.90
27741;DHT22;15134;48.768;9.184;2022-10-30T10:59:02;21.60;99.90
27741;DHT22;15134;48.768;9.184;2022-10-30T11:01:39;21.70;99.90
27741;DHT22;15134;48.768;9.184;2022-10-30T11:04:11;21.80;99.90
27741;DHT22;15134;48.768;9.184;2022-10-30T11:06:41;21.90;99.90
27741;DHT22;15134;48.768;9.184;2022-10-30T11:09:19;22.00;99.90
27741;DHT22;15134;48.768;9.184;2022-10-30T11:11:49;22.00;99.90
27741;DHT22;15134;48.768;9.184;2022-10-30T11:14:16;22.10;99.90
27741;DHT22;15134;48.768;9.184;2022-10-30T11:19:30;22.20;99.90
27741;DHT22;15134;48.768;9.184;2022-10-30T11:21:57;22.20;99.90
27741;DHT22;15134;48.768;9.184;2022-10-30T11:24:33;22.30;99.90
27741;DHT22;15134;48.768;9.184;2022-10-30T11:27:16;22.30;99.90
27741;DHT22;15134;48.768;9.184;2022-10-30T11:30:00;22.30;99.90
27741;DHT22;15134;48.768;9.184;2022-10-30T11:32:28;22.30;99.90
27741;DHT22;15134;48.768;9.184;2022-10-30T11:37:37;22.30;99.90
27741;DHT22;15134;48.768;9.184;2022-10-30T11:42:37;22.30;99.90
27741;DHT22;15134;48.768;9.184;2022-10-30T11:45:18;22.30;99.90
27741;DHT22;15134;48.768;9.184;2022-10-30T11:47:45;22.30;99.90
27741;DHT22;15134;48.768;9.184;2022-10-30T11:50:21;22.30;99.90
27741;DHT22;15134;48.768;9.184;2022-10-30T11:52:54;22.30;99.90
27741;DHT22;15134;48.768;9.184;2022-10-30T11:55:45;22.30;99.90
27741;DHT22;15134;48.768;9.184;2022-10-30T11:58:27;22.20;99.90
27741;DHT22;15134;48.768;9.184;2022-10-30T12:01:47;22.20;99.90
27741;DHT22;15134;48.768;9.184;2022-10-30T12:03:47;22.10;99.90
27741;DHT22;15134;48.768;9.184;2022-10-30T12:06:18;22.00;99.90
27741;DHT22;15134;48.768;9.184;2022-10-30T12:11:32;21.80;99.90
27741;DHT22;15134;48.768;9.184;2022-10-30T12:13:59;21.70;99.90
27741;DHT22;15134;48.768;9.184;2022-10-30T12:16:25;21.60;99.90
27741;DHT22;15134;48.768;9.184;2022-10-30T12:19:05;21.60;99.90
27741;DHT22;15134;48.768;9.184;2022-10-30T12:21:35;21.60;99.90
27741;DHT22;15134;48.768;9.184;2022-10-30T12:26:49;21.60;99.90
27741;DHT22;15134;48.768;9.184;2022-10-30T12:29:17;21.60;99.90
27741;DHT22;15134;48.768;9.184;2022-10-30T12:31:52;21.70;99.90
27741;DHT22;15134;48.768;9.184;2022-10-30T12:34:44;21.80;99.90
27741;DHT22;15134;48.768;9.184;2022-10-30T12:39:43;21.90;99.90
27741;DHT22;15134;48.768;9.184;2022-10-30T12:42:15;22.00;99.90
27741;DHT22;15134;48.768;9.184;2022-10-30T12:44:42;22.00;99.90
27741;DHT22;15134;48.768;9.184;2022-10-30T12:47:42;22.00;99.90
27741;DHT22;15134;48.768;9.184;2022-10-30T12:50:18;22.00;99.90
27741;DHT22;15134;48.768;9.184;2022-10-30T12:55:37;21.90;99.90
27741;DHT22;15134;48.768;9.184;2022-10-30T13:00:51;21.90;99.90
27741;DHT22;15134;48.768;9.184;2022-10-30T13:03:35;21.90;99.90
27741;DHT22;15134;48.768;9.184;2022-10-30T13:06:22;21.90;99.90
27741;DHT22;15134;48.768;9.184;2022-10-30T13:09:19;21.80;99.90
27741;DHT22;15134;48.768;9.184;2022-10-30T13:11:52;21.80;99.90
27741;DHT22;15134;48.768;9.184;2022-10-30T13:14:23;21.80;99.90
27741;DHT22;15134;48.768;9.184;2022-10-30T13:16:51;21.80;99.90
27741;DHT22;15134;48.768;9.184;2022-10-30T13:19:17;21.70;99.90
27741;DHT22;15134;48.768;9.184;2022-10-30T13:30:09;21.70;99.90
27741;DHT22;15134;48.768;9.184;2022-10-30T13:35:37;21.70;99.90
27741;DHT22;15134;48.768;9.184;2022-10-30T13:38:36;21.60;99.90
27741;DHT22;15134;48.768;9.184;2022-10-30T13:41:34;21.60;99.90
27741;DHT22;15134;48.768;9.184;2022-10-30T13:47:39;21.60;99.90
27741;DHT22;15134;48.768;9.184;2022-10-30T13:53:14;21.60;99.90
27741;DHT22;15134;48.768;9.184;2022-10-30T13:55:44;21.50;99.90
27741;DHT22;15134;48.768;9.184;2022-10-30T14:01:37;21.50;99.90
27741;DHT22;15134;48.768;9.184;2022-10-30T14:04:14;21.40;99.90
27741;DHT22;15134;48.768;9.184;2022-10-30T14:13:12;21.30;99.90
27741;DHT22;15134;48.768;9.184;2022-10-30T14:15:35;21.30;99.90
27741;DHT22;15134;48.768;9.184;2022-10-30T14:26:11;21.00;99.90
27741;DHT22;15134;48.768;9.184;2022-10-30T14:28:44;21.00;99.90
27741;DHT22;15134;48.768;9.184;2022-10-30T14:31:12;20.90;99.90
27741;DHT22;15134;48.768;9.184;2022-10-30T14:33:54;20.80;99.90
27741;DHT22;15134;48.768;9.184;2022-10-30T14:39:25;20.70;99.90
27741;DHT22;15134;48.768;9.184;2022-10-30T14:45:00;20.60;99.90
27741;DHT22;15134;48.768;9.184;2022-10-30T14:50:32;20.50;99.90
27741;DHT22;15134;48.768;9.184;2022-10-30T14:53:20;20.40;99.90
27741;DHT22;15134;48.768;9.184;2022-10-30T14:56:23;20.40;99.90
27741;DHT22;15134;48.768;9.184;2022-10-30T15:07:16;20.20;99.90
27741;DHT22;15134;48.768;9.184;2022-10-30T15:15:12;20.10;99.90
27741;DHT22;15134;48.768;9.184;2022-10-30T15:17:50;20.00;99.90
27741;DHT22;15134;48.768;9.184;2022-10-30T15:20:25;20.00;99.90
27741;DHT22;15134;48.768;9.184;2022-10-30T15:23:00;19.90;99.90
27741;DHT22;15134;48.768;9.184;2022-10-30T15:25:34;19.90;99.90
27741;DHT22;15134;48.768;9.184;2022-10-30T15:28:01;19.90;99.90
27741;DHT22;15134;48.768;9.184;2022-10-30T15:30:30;19.80;99.90
27741;DHT22;15134;48.768;9.184;2022-10-30T15:32:56;19.80;99.90
27741;DHT22;15134;48.768;9.184;2022-10-30T15:35:29;19.80;99.90
27741;DHT22;15134;48.768;9.184;2022-10-30T15:38:00;19.70;99.90
27741;DHT22;15134;48.768;9.184;2022-10-30T15:40:29;19.70;99.90
27741;DHT22;15134;48.768;9.184;2022-10-30T15:42:56;19.70;99.90
27741;DHT22;15134;48.768;9.184;2022-10-30T15:45:34;19.60;99.90
27741;DHT22;15134;48.768;9.184;2022-10-30T15:50:51;19.50;99.90
27741;DHT22;15134;48.768;9.184;2022-10-30T15:53:20;19.50;99.90
27741;DHT22;15134;48.768;9.184;2022-10-30T15:55:49;19.40;99.90
27741;DHT22;15134;48.768;9.184;2022-10-30T15:58:21;19.30;99.90
27741;DHT22;15134;48.768;9.184;2022-10-30T16:01:01;19.30;99.90
27741;DHT22;15134;48.768;9.184;2022-10-30T16:03:28;19.20;99.90
27741;DHT22;15134;48.768;9.184;2022-10-30T16:06:15;19.10;99.90
27741;DHT22;15134;48.768;9.184;2022-10-30T16:08:45;19.10;99.90
27741;DHT22;15134;48.768;9.184;2022-10-30T16:11:14;19.00;99.90
27741;DHT22;15134;48.768;9.184;2022-10-30T16:13:41;19.00;99.90
27741;DHT22;15134;48.768;9.184;2022-10-30T16:16:21;19.00;99.90
27741;DHT22;15134;48.768;9.184;2022-10-30T16:18:50;18.90;99.90
27741;DHT22;15134;48.768;9.184;2022-10-30T16:21:18;18.90;99.90
27741;DHT22;15134;48.768;9.184;2022-10-30T16:23:57;18.80;99.90
27741;DHT22;15134;48.768;9.184;2022-10-30T16:26:33;18.80;99.90
27741;DHT22;15134;48.768;9.184;2022-10-30T16:31:38;18.70;99.90
27741;DHT22;15134;48.768;9.184;2022-10-30T16:34:15;18.60;99.90
27741;DHT22;15134;48.768;9.184;2022-10-30T16:36:43;18.60;99.90
27741;DHT22;15134;48.768;9.184;2022-10-30T16:39:13;18.60;99.90
27741;DHT22;15134;48.768;9.184;2022-10-30T16:41:43;18.50;99.90
27741;DHT22;15134;48.768;9.184;2022-10-30T16:44:13;18.50;99.90
27741;DHT22;15134;48.768;9.184;2022-10-30T16:49:30;18.40;99.90
27741;DHT22;15134;48.768;9.184;2022-10-30T16:52:11;18.40;99.90
27741;DHT22;15134;48.768;9.184;2022-10-30T16:54:41;18.30;99.90
27741;DHT22;15134;48.768;9.184;2022-10-30T16:57:24;18.30;99.90
27741;DHT22;15134;48.768;9.184;2022-10-30T16:59:54;18.30;99.90
27741;DHT22;15134;48.768;9.184;2022-10-30T17:02:33;18.30;99.90
27741;DHT22;15134;48.768;9.184;2022-10-30T17:05:22;18.20;99.90
27741;DHT22;15134;48.768;9.184;2022-10-30T17:08:05;18.20;99.90
27741;DHT22;15134;48.768;9.184;2022-10-30T17:21:50;18.00;99.90
27741;DHT22;15134;48.768;9.184;2022-10-30T17:24:24;18.00;99.90
27741;DHT22;15134;48.768;9.184;2022-10-30T17:26:54;18.00;99.90
27741;DHT22;15134;48.768;9.184;2022-10-30T17:29:50;17.90;99.90
27741;DHT22;15134;48.768;9.184;2022-10-30T17:32:27;17.80;99.90
27741;DHT22;15134;48.768;9.184;2022-10-30T17:35:01;17.80;99.90
27741;DHT22;15134;48.768;9.184;2022-10-30T17:37:27;17.80;99.90
27741;DHT22;15134;48.768;9.184;2022-10-30T17:39:53;17.80;99.90
27741;DHT22;15134;48.768;9.184;2022-10-30T17:42:19;17.80;99.90
27741;DHT22;15134;48.768;9.184;2022-10-30T17:44:45;17.70;99.90
27741;DHT22;15134;48.768;9.184;2022-10-30T17:47:16;17.70;99.90
27741;DHT22;15134;48.768;9.184;2022-10-30T17:49:42;17.70;99.90
27741;DHT22;15134;48.768;9.184;2022-10-30T17:52:11;17.60;99.90
27741;DHT22;15134;48.768;9.184;2022-10-30T17:54:43;17.50;99.90
27741;DHT22;15134;48.768;9.184;2022-10-30T17:57:12;17.50;99.90
27741;DHT22;15134;48.768;9.184;2022-10-30T17:59:42;17.50;99.90
27741;DHT22;15134;48.768;9.184;2022-10-30T18:02:19;17.50;99.90
27741;DHT22;15134;48.768;9.184;2022-10-30T18:04:46;17.50;99.90
27741;DHT22;15134;48.768;9.184;2022-10-30T18:07:13;17.50;99.90
27741;DHT22;15134;48.768;9.184;2022-10-30T18:09:43;17.50;99.90
27741;DHT22;15134;48.768;9.184;2022-10-30T18:12:14;17.40;99.90
27741;DHT22;15134;48.768;9.184;2022-10-30T18:14:40;17.40;99.90
27741;DHT22;15134;48.768;9.184;2022-10-30T18:17:08;17.40;99.90
27741;DHT22;15134;48.768;9.184;2022-10-30T18:19:34;17.40;99.90
27741;DHT22;15134;48.768;9.184;2022-10-30T18:22:00;17.30;99.90
27741;DHT22;15134;48.768;9.184;2022-10-30T18:24:35;17.30;99.90
27741;DHT22;15134;48.768;9.184;2022-10-30T18:27:01;17.40;99.90
27741;DHT22;15134;48.768;9.184;2022-10-30T18:29:29;17.30;99.90
27741;DHT22;15134;48.768;9.184;2022-10-30T18:31:56;17.30;99.90
27741;DHT22;15134;48.768;9.184;2022-10-30T18:34:21;17.30;99.90
27741;DHT22;15134;48.768;9.184;2022-10-30T18:36:47;17.30;99.90
27741;DHT22;15134;48.768;9.184;2022-10-30T18:39:13;17.30;99.90